Time;durP1;ratioP1;P1;durP2;ratioP2;P2;SDS_P1;SDS_P2;PMS_P1;PMS_P2;Temp;Humidity;BMP_temperature;BMP_pressure;BME280_temperature;BME280_humidity;BME280_pressure;Samples;Min_cycle;Max_cycle;Signal;HPM_P1;HPM_P2
2021/12/14 00:00:51;;;;;;;66.65;31.00;;;;;;;-1.47;100.00;101207.03;5075197;28;20048;-75
2021/12/14 00:03:25;;;;;;;;;;;;;;;-1.41;100.00;101201.84;5075766;28;20040;-79
2021/12/14 00:05:54;;;;;;;61.97;27.80;;;;;;;-1.34;100.00;101195.75;5075286;28;20304;-79
2021/12/14 00:08:26;;;;;;;57.97;30.63;;;;;;;-1.47;100.00;101201.81;5075175;28;20421;-79
2021/12/14 00:11:14;;;;;;;67.07;29.98;;;;;;;-1.46;100.00;101201.81;5074115;28;20114;-79
2021/12/14 00:13:54;;;;;;;60.70;30.67;;;;;;;-1.53;100.00;101207.03;5074816;28;20438;-81
2021/12/14 00:16:24;;;;;;;65.63;31.10;;;;;;;-1.61;100.00;101208.72;5075514;28;20052;-78
2021/12/14 00:18:53;;;;;;;63.85;32.25;;;;;;;-1.74;100.00;101208.69;5074676;28;20448;-78
2021/12/14 00:21:29;;;;;;;65.07;32.92;;;;;;;-1.82;100.00;101210.38;5074705;28;20094;-78
2021/12/14 00:24:11;;;;;;;66.88;32.15;;;;;;;-1.82;100.00;101206.88;5074567;28;20119;-79
2021/12/14 00:26:43;;;;;;;64.05;32.15;;;;;;;-1.72;100.00;101216.53;5072719;28;20055;-78
2021/12/14 00:29:17;;;;;;;69.80;32.72;;;;;;;-1.69;100.00;101216.53;5074895;28;20494;-78
2021/12/14 00:31:46;;;;;;;62.88;32.05;;;;;;;-1.66;100.00;101215.66;5074697;28;20052;-83
2021/12/14 00:34:23;;;;;;;63.38;32.10;;;;;;;-1.76;100.00;101209.50;5074658;28;20097;-83
2021/12/14 00:36:53;;;;;;;64.70;31.20;;;;;;;-1.82;100.00;101205.13;5074682;28;20409;-80
2021/12/14 00:39:21;;;;;;;66.03;32.28;;;;;;;-1.90;100.00;101206.84;5074360;28;20131;-80
2021/12/14 00:41:50;;;;;;;64.50;31.27;;;;;;;-1.91;100.00;101210.31;5074485;28;20465;-81
2021/12/14 00:44:18;;;;;;;59.38;30.63;;;;;;;-1.97;100.00;101212.88;5074305;28;20094;-80
2021/12/14 00:46:47;;;;;;;65.88;32.38;;;;;;;-1.90;100.00;101211.19;5074352;28;20037;-80
2021/12/14 00:49:17;;;;;;;63.75;31.30;;;;;;;-1.99;100.00;101217.25;5074434;28;20048;-78
2021/12/14 00:51:47;;;;;;;64.68;30.52;;;;;;;-1.96;100.00;101217.25;5074040;28;20044;-77
2021/12/14 00:54:17;;;;;;;61.53;30.20;;;;;;;-2.08;100.00;101214.56;5074145;28;20043;-78
2021/12/14 00:56:47;;;;;;;62.40;30.52;;;;;;;-2.11;100.00;101232.84;5073435;28;20132;-77
2021/12/14 00:59:17;;;;;;;64.57;31.15;;;;;;;-2.06;100.00;101224.16;5074634;28;20052;-77
2021/12/14 01:01:47;;;;;;;62.42;31.13;;;;;;;-2.12;100.00;101233.72;5073676;28;20055;-78
2021/12/14 01:04:24;;;;;;;66.38;33.00;;;;;;;-2.41;100.00;101220.44;5074135;28;20048;-77
2021/12/14 01:06:53;;;;;;;62.28;32.15;;;;;;;-2.33;100.00;101219.59;5074151;28;20048;-78
2021/12/14 01:09:24;;;;;;;64.00;32.03;;;;;;;-2.40;100.00;101214.34;5074213;28;20040;-77
2021/12/14 01:11:59;;;;;;;65.47;31.40;;;;;;;-2.32;100.00;101225.69;5073940;28;20393;-78
2021/12/14 01:14:33;;;;;;;65.78;32.53;;;;;;;-2.25;100.00;101229.25;5074206;28;20109;-77
2021/12/14 01:17:10;;;;;;;59.45;31.25;;;;;;;-2.02;100.00;101232.91;5073759;28;20044;-77
2021/12/14 01:19:46;;;;;;;61.13;31.40;;;;;;;-2.08;100.00;101227.63;5073840;28;20036;-77
2021/12/14 01:22:32;;;;;;;63.78;32.83;;;;;;;-2.35;100.00;101223.94;5073916;28;20052;-78
2021/12/14 01:25:09;;;;;;;71.78;33.25;;;;;;;-2.36;100.00;101227.44;5073177;28;20515;-77
2021/12/14 01:27:44;;;;;;;65.50;31.73;;;;;;;-2.31;100.00;101224.88;5072603;28;20064;-75
2021/12/14 01:30:29;;;;;;;64.00;31.95;;;;;;;-2.32;100.00;101233.53;5073936;28;20044;-76
2021/12/14 01:33:03;;;;;;;58.25;31.27;;;;;;;-2.14;100.00;101232.81;5073448;28;20077;-75
2021/12/14 01:35:36;;;;;;;67.85;34.97;;;;;;;-2.25;100.00;101224.88;5073736;28;20048;-76
2021/12/14 01:38:20;;;;;;;67.25;33.58;;;;;;;-2.22;100.00;101226.63;5073516;28;20060;-76
2021/12/14 01:40:58;;;;;;;65.22;31.52;;;;;;;-2.15;100.00;101224.09;5073925;28;20109;-77
2021/12/14 01:43:32;;;;;;;65.68;32.63;;;;;;;-2.21;100.00;101223.19;5076027;28;20086;-77
2021/12/14 01:46:04;;;;;;;63.83;31.92;;;;;;;-2.28;100.00;101226.63;5072988;28;20044;-77
2021/12/14 01:48:33;;;;;;;63.92;31.95;;;;;;;-2.22;100.00;101224.94;5073670;28;20049;-77
2021/12/14 01:51:07;;;;;;;67.65;33.60;;;;;;;-2.16;100.00;101224.09;5073178;28;20033;-78
2021/12/14 01:53:37;;;;;;;63.08;32.22;;;;;;;-2.21;100.00;101223.19;5073739;28;20044;-78
2021/12/14 01:56:11;;;;;;;61.75;31.38;;;;;;;-2.33;100.00;101224.81;5073987;28;20055;-77
2021/12/14 01:58:42;;;;;;;62.22;31.70;;;;;;;-2.25;100.00;101224.88;5073127;28;20106;-77
2021/12/14 02:01:15;;;;;;;71.83;33.80;;;;;;;-2.18;100.00;101217.97;5071627;28;20501;-77
2021/12/14 02:03:49;;;;;;;61.17;31.10;;;;;;;-2.23;100.00;101217.94;5073090;28;20036;-77
2021/12/14 02:06:23;;;;;;;63.45;33.22;;;;;;;-2.28;100.00;101218.78;5073475;28;20047;-77
2021/12/14 02:08:57;;;;;;;64.88;31.63;;;;;;;-2.22;100.00;101226.63;5073501;28;20055;-77
2021/12/14 02:11:32;;;;;;;68.55;33.78;;;;;;;-2.34;100.00;101223.06;5073443;28;20478;-77
2021/12/14 02:14:01;;;;;;;67.35;32.67;;;;;;;-2.53;100.00;101218.56;5072707;28;20477;-75
2021/12/14 02:16:30;;;;;;;62.55;31.48;;;;;;;-2.54;100.00;101219.44;5072879;28;20520;-74
2021/12/14 02:19:03;;;;;;;64.72;32.75;;;;;;;-2.44;100.00;101215.16;5072914;28;20071;-75
2021/12/14 02:21:33;;;;;;;69.38;32.88;;;;;;;-2.49;100.00;101216.88;5073037;28;20036;-75
2021/12/14 02:24:04;;;;;;;64.32;31.67;;;;;;;-2.61;100.00;101221.13;5072821;28;20055;-75
2021/12/14 02:26:37;;;;;;;62.58;32.25;;;;;;;-2.70;100.00;101217.53;5073188;28;20052;-75
2021/12/14 02:29:08;;;;;;;71.00;33.28;;;;;;;-2.53;100.00;101218.56;5072577;28;20045;-75
2021/12/14 02:31:41;;;;;;;63.63;32.22;;;;;;;-2.38;100.00;101221.31;5072800;28;20498;-75
2021/12/14 02:34:09;;;;;;;66.30;32.50;;;;;;;-2.22;100.00;101218.81;5072547;28;20103;-77
2021/12/14 02:36:43;;;;;;;72.30;32.85;;;;;;;-2.34;100.00;101223.06;5072882;28;20121;-76
2021/12/14 02:39:25;;;;;;;68.13;33.45;;;;;;;-2.44;100.00;101221.25;5072709;28;20527;-76
2021/12/14 02:41:57;;;;;;;66.85;33.55;;;;;;;-2.59;100.00;101223.75;5072366;28;20084;-77
2021/12/14 02:44:25;;;;;;;62.72;31.67;;;;;;;-2.50;100.00;101216.00;5073176;28;20139;-76
2021/12/14 02:46:56;;;;;;;66.82;33.15;;;;;;;-2.52;100.00;101222.06;5072414;28;20045;-77
2021/12/14 02:49:29;;;;;;;69.47;33.40;;;;;;;-2.46;100.00;101217.75;5073323;28;20474;-77
2021/12/14 02:52:02;;;;;;;64.43;33.42;;;;;;;-2.53;100.00;101218.56;5076542;28;20123;-76
2021/12/14 02:54:39;;;;;;;66.55;33.50;;;;;;;-2.68;100.00;101214.09;5076904;28;20473;-76
2021/12/14 02:57:11;;;;;;;69.97;33.25;;;;;;;-2.63;100.00;101222.84;5076530;28;20051;-77
2021/12/14 02:59:42;;;;;;;63.60;33.03;;;;;;;-2.51;100.00;101219.47;5076485;28;20040;-76
2021/12/14 03:02:13;;;;;;;73.03;34.15;;;;;;;-2.56;100.00;101218.56;5076008;28;20049;-77
2021/12/14 03:04:45;;;;;;;66.05;34.00;;;;;;;-2.69;100.00;101208.88;5076687;28;20044;-77
2021/12/14 03:07:16;;;;;;;65.88;33.03;;;;;;;-2.83;100.00;101215.69;5076401;28;20410;-77
2021/12/14 03:09:56;;;;;;;67.13;32.97;;;;;;;-2.74;100.00;101221.88;5076336;28;20049;-76
2021/12/14 03:12:30;;;;;;;61.17;31.35;;;;;;;-2.67;100.00;101220.19;5076463;28;20034;-77
2021/12/14 03:15:04;;;;;;;59.75;30.80;;;;;;;-2.58;100.00;101219.41;5076272;28;20090;-77
2021/12/14 03:17:32;;;;;;;68.07;32.85;;;;;;;-2.53;100.00;101221.19;5075082;28;20059;-77
2021/12/14 03:20:07;;;;;;;67.75;32.45;;;;;;;-2.60;100.00;101232.47;5075787;28;20119;-77
2021/12/14 03:22:43;;;;;;;65.65;33.95;;;;;;;-2.69;100.00;101224.53;5076382;28;20127;-75
2021/12/14 03:25:14;;;;;;;69.80;33.92;;;;;;;-2.80;100.00;101231.38;5075755;28;20094;-76
2021/12/14 03:27:45;;;;;;;67.55;33.78;;;;;;;-2.65;100.00;101229.78;5076322;28;20048;-76
2021/12/14 03:30:20;;;;;;;67.50;34.50;;;;;;;-2.62;100.00;101226.31;5076088;28;20044;-78
2021/12/14 03:32:48;;;;;;;66.22;33.20;;;;;;;-2.67;100.00;101222.81;5076161;28;20397;-77
2021/12/14 03:35:19;;;;;;;69.00;32.10;;;;;;;-2.58;100.00;101224.63;5075495;28;20080;-77
2021/12/14 03:37:49;;;;;;;64.75;31.75;;;;;;;-2.45;100.00;101223.88;5075701;28;20129;-77
2021/12/14 03:40:21;;;;;;;60.15;30.13;;;;;;;-2.47;100.00;101216.03;5075366;28;20059;-77
2021/12/14 03:42:49;;;;;;;55.28;28.90;;;;;;;-2.48;100.00;101214.28;5075912;28;20479;-77
2021/12/14 03:45:21;;;;;;;65.47;31.80;;;;;;;-2.57;100.00;101216.81;5075452;28;20044;-76
2021/12/14 03:47:53;;;;;;;64.15;31.55;;;;;;;-2.58;100.00;101225.50;5075571;28;20401;-76
2021/12/14 03:50:25;;;;;;;60.20;29.50;;;;;;;-2.59;100.00;101213.31;5075707;28;20036;-75
2021/12/14 03:52:54;;;;;;;52.25;28.00;;;;;;;-2.66;100.00;101203.66;5076040;28;20044;-78
2021/12/14 03:55:26;;;;;;;56.75;29.63;;;;;;;-2.69;100.00;101201.91;5075761;28;20139;-78
2021/12/14 03:57:55;;;;;;;58.88;29.95;;;;;;;-2.72;100.00;101203.59;5075517;28;20041;-78
2021/12/14 04:00:28;;;;;;;55.03;28.65;;;;;;;-2.70;100.00;101209.69;5075395;28;20462;-78
2021/12/14 04:02:59;;;;;;;57.47;29.67;;;;;;;-2.78;100.00;101217.50;5075039;28;20052;-79
2021/12/14 04:05:29;;;;;;;;;;;;;;;-2.96;100.00;101214.69;5075745;28;20041;-75
2021/12/14 04:07:59;;;;;;;59.10;29.10;;;;;;;-2.91;100.00;101220.81;5074995;28;19920;-76
2021/12/14 04:10:30;;;;;;;62.53;31.63;;;;;;;-2.84;100.00;101211.31;5075306;28;20492;-76
2021/12/14 04:12:59;;;;;;;63.33;29.85;;;;;;;-2.80;100.00;101218.31;5075359;28;20086;-77
2021/12/14 04:15:28;;;;;;;62.35;29.15;;;;;;;-2.70;100.00;101215.81;5075238;28;20041;-76
2021/12/14 04:17:57;;;;;;;58.35;31.13;;;;;;;-2.70;100.00;101218.44;5074654;28;20036;-79
2021/12/14 04:20:30;;;;;;;63.78;30.67;;;;;;;-2.60;100.00;101215.06;5075158;28;20094;-77
2021/12/14 04:23:02;;;;;;;59.40;29.08;;;;;;;-2.47;100.00;101209.91;5074550;28;20067;-77
2021/12/14 04:25:36;;;;;;;61.17;30.33;;;;;;;-2.73;100.00;101218.38;5075290;28;20051;-76
2021/12/14 04:28:07;;;;;;;62.75;30.23;;;;;;;-2.68;100.00;101218.44;5073741;28;20045;-75
2021/12/14 04:30:37;;;;;;;57.58;29.95;;;;;;;-2.89;100.00;101214.78;5075012;28;20047;-75
2021/12/14 04:33:11;;;;;;;62.63;31.90;;;;;;;-3.02;100.00;101218.09;5074279;28;20040;-75
2021/12/14 04:35:43;;;;;;;57.30;30.23;;;;;;;-3.09;100.00;101218.88;5075152;28;20135;-75
2021/12/14 04:38:19;;;;;;;63.60;30.33;;;;;;;-3.08;100.00;101225.88;5074251;28;20539;-75
2021/12/14 04:52:00;;;;;;;61.78;30.65;;;;;;;-3.06;100.00;101229.38;5074438;28;20047;-75
2021/12/14 04:54:38;;;;;;;59.75;30.58;;;;;;;-3.17;100.00;101224.06;5074526;28;20040;-74
2021/12/14 04:57:18;;;;;;;68.30;32.38;;;;;;;-3.09;100.00;101225.84;5074214;28;20110;-74
2021/12/14 04:59:48;;;;;;;64.60;32.45;;;;;;;-3.13;100.00;101227.56;5074212;28;20044;-74
2021/12/14 05:02:20;;;;;;;62.13;31.90;;;;;;;-3.22;100.00;101222.22;5073769;28;20045;-75
2021/12/14 05:04:50;;;;;;;62.45;31.13;;;;;;;-3.30;100.00;101223.88;5073982;28;20040;-73
2021/12/14 05:07:45;;;;;;;65.82;32.65;;;;;;;-3.35;100.00;101225.56;5073512;28;20485;-74
2021/12/14 05:10:19;;;;;;;73.40;32.33;;;;;;;-3.39;100.00;101231.59;5073854;28;20094;-75
2021/12/14 05:12:49;;;;;;;67.20;32.97;;;;;;;-3.11;100.00;101233.66;5073651;28;20094;-74
2021/12/14 05:15:17;;;;;;;61.38;31.27;;;;;;;-3.11;100.00;101231.06;5073659;28;20090;-74
2021/12/14 05:17:48;;;;;;;57.30;31.02;;;;;;;-3.02;100.00;101233.75;5074043;28;20127;-74
2021/12/14 05:20:18;;;;;;;56.30;29.15;;;;;;;-2.94;100.00;101236.47;5073488;28;20047;-74
2021/12/14 05:22:48;;;;;;;64.00;30.58;;;;;;;-3.21;100.00;101235.28;5073506;28;20040;-74
2021/12/14 05:25:21;;;;;;;61.55;30.98;;;;;;;-3.16;100.00;101232.75;5073631;28;20119;-75
2021/12/14 05:27:52;;;;;;;58.38;30.73;;;;;;;-3.17;100.00;101241.44;5073572;28;20443;-75
2021/12/14 05:30:24;;;;;;;65.45;30.55;;;;;;;-3.30;100.00;101244.75;5073194;28;20402;-76
2021/12/14 05:32:59;;;;;;;63.67;30.50;;;;;;;-3.20;100.00;101238.78;5073730;28;20082;-76
2021/12/14 05:35:28;;;;;;;61.17;29.63;;;;;;;-3.33;100.00;101249.94;5073404;28;20033;-78
2021/12/14 05:37:58;;;;;;;62.03;31.50;;;;;;;-3.41;100.00;101254.19;5073555;28;20486;-78
2021/12/14 05:40:45;;;;;;;61.03;30.88;;;;;;;-3.38;100.00;101238.56;5073438;28;20067;-78
2021/12/14 05:43:19;;;;;;;61.42;29.58;;;;;;;-3.33;100.00;101252.56;5073755;28;20051;-78
2021/12/14 05:45:52;;;;;;;59.50;28.05;;;;;;;-3.44;100.00;101257.63;5073862;28;20040;-78
2021/12/14 05:48:24;;;;;;;68.03;28.27;;;;;;;-3.58;100.00;101265.25;5073419;28;20059;-77
2021/12/14 05:50:56;;;;;;;68.78;28.20;;;;;;;-3.56;100.00;101263.56;5073535;28;20121;-78
2021/12/14 05:53:28;;;;;;;55.92;26.77;;;;;;;-3.53;100.00;101271.44;5073773;28;20090;-81
2021/12/14 05:56:01;;;;;;;76.13;27.08;;;;;;;-3.40;100.00;101277.69;5073286;28;20095;-77
2021/12/14 05:58:30;;;;;;;67.32;27.58;;;;;;;-3.35;100.00;101270.81;5073091;28;20048;-76
2021/12/14 06:01:02;;;;;;;66.55;25.63;;;;;;;-3.39;100.00;101263.78;5073007;28;20043;-76
2021/12/14 06:03:35;;;;;;;58.78;25.95;;;;;;;-3.56;100.00;101271.41;5073076;28;20037;-78
2021/12/14 06:06:04;;;;;;;55.40;24.15;;;;;;;-3.56;100.00;101268.78;5072826;28;20170;-74
2021/12/14 06:08:35;;;;;;;55.60;25.85;;;;;;;-3.46;100.00;101273.28;5072823;28;20045;-74
2021/12/14 06:11:05;;;;;;;60.55;24.45;;;;;;;-3.28;100.00;101274.34;5073218;28;20445;-71
2021/12/14 06:13:40;;;;;;;52.78;23.27;;;;;;;-3.27;100.00;101273.50;5072943;28;20094;-73
2021/12/14 06:16:21;;;;;;;59.78;23.73;;;;;;;-3.49;100.00;101268.00;5072606;28;20473;-73
2021/12/14 06:18:49;;;;;;;68.38;21.65;;;;;;;-3.37;100.00;101271.66;5072731;28;20040;-73
2021/12/14 06:21:19;;;;;;;78.50;24.05;;;;;;;-3.52;100.00;101257.53;5072549;28;20481;-73
2021/12/14 06:23:47;;;;;;;69.13;21.50;;;;;;;-3.49;100.00;101273.22;5070624;28;20133;-73
2021/12/14 06:26:19;;;;;;;60.45;23.05;;;;;;;-3.38;100.00;101286.41;5072018;28;20058;-73
2021/12/14 06:28:48;;;;;;;54.80;22.98;;;;;;;-3.43;100.00;101284.59;5073065;28;20049;-72
2021/12/14 06:31:24;;;;;;;59.45;22.80;;;;;;;-3.53;100.00;101278.38;5072461;28;20124;-71
2021/12/14 06:33:52;;;;;;;65.43;23.13;;;;;;;-3.58;100.00;101267.88;5072616;28;20090;-71
2021/12/14 06:36:51;;;;;;;87.63;24.15;;;;;;;-3.47;100.00;101281.09;5072286;28;20045;-72
2021/12/14 06:39:20;;;;;;;75.80;23.48;;;;;;;-3.37;100.00;101288.19;5072045;28;20198;-72
2021/12/14 06:41:50;;;;;;;67.53;23.10;;;;;;;-3.60;100.00;101274.81;5073059;28;20036;-72
2021/12/14 06:44:20;;;;;;;76.53;22.83;;;;;;;-3.62;100.00;101291.28;5072633;28;20036;-75
2021/12/14 06:46:48;;;;;;;68.10;22.13;;;;;;;-3.49;100.00;101281.03;5073050;28;20037;-74
2021/12/14 06:49:16;;;;;;;57.80;20.15;;;;;;;-3.26;100.00;101283.09;5072760;28;20053;-75
2021/12/14 06:51:48;;;;;;;70.57;22.38;;;;;;;-3.41;100.00;101286.38;5073012;28;20047;-74
2021/12/14 06:54:19;;;;;;;61.92;20.85;;;;;;;-3.43;100.00;101280.25;5072764;28;20044;-74
2021/12/14 06:56:51;;;;;;;86.05;21.38;;;;;;;-3.32;100.00;101283.88;5073258;28;20120;-74
2021/12/14 06:59:33;;;;;;;61.50;20.45;;;;;;;-3.37;100.00;101287.31;5073353;28;20068;-75
2021/12/14 07:02:05;;;;;;;60.53;20.92;;;;;;;-3.33;100.00;101289.06;5073074;28;20083;-74
2021/12/14 07:04:42;;;;;;;58.80;20.30;;;;;;;-3.18;100.00;101291.91;5073671;28;20033;-73
2021/12/14 07:07:17;;;;;;;45.75;19.73;;;;;;;-3.16;100.00;101298.00;5073607;28;20285;-69
2021/12/14 07:09:50;;;;;;;72.88;20.23;;;;;;;-3.13;100.00;101298.03;5073785;28;20089;-70
2021/12/14 07:12:23;;;;;;;107.50;21.00;;;;;;;-3.07;100.00;101298.13;5073055;28;20043;-71
2021/12/14 07:15:09;;;;;;;88.00;19.88;;;;;;;-3.09;100.00;101294.59;5072690;28;20131;-71
2021/12/14 07:17:43;;;;;;;68.68;21.45;;;;;;;-3.02;100.00;101299.03;5074290;28;20565;-73
2021/12/14 07:20:22;;;;;;;63.58;19.60;;;;;;;-2.91;100.00;101294.78;5072285;28;20047;-72
2021/12/14 07:22:53;;;;;;;60.45;20.45;;;;;;;-2.98;100.00;101299.97;5072069;28;20418;-74
2021/12/14 07:25:25;;;;;;;55.97;20.15;;;;;;;-2.83;100.00;101294.88;5072330;28;20538;-71
2021/12/14 07:27:57;;;;;;;53.43;20.80;;;;;;;-2.82;100.00;101291.41;5072479;28;20041;-70
2021/12/14 07:30:31;;;;;;;63.27;20.93;;;;;;;-2.65;100.00;101307.28;5072474;28;20047;-71
2021/12/14 07:33:05;;;;;;;65.32;20.30;;;;;;;-2.54;100.00;101304.78;5072355;28;20048;-71
2021/12/14 07:35:47;;;;;;;61.17;20.92;;;;;;;-2.44;100.00;101312.72;5072985;28;20048;-70
2021/12/14 07:38:30;;;;;;;92.80;21.92;;;;;;;-2.55;100.00;101309.13;5075835;28;20053;-71
2021/12/14 07:41:04;;;;;;;91.68;23.77;;;;;;;-2.61;100.00;101309.03;5076021;28;20110;-69
2021/12/14 07:43:45;;;;;;;65.40;22.42;;;;;;;-2.44;100.00;101309.22;5075482;28;20079;-70
2021/12/14 07:46:17;;;;;;;59.08;21.92;;;;;;;-2.25;100.00;101318.97;5075821;28;20041;-68
2021/12/14 07:48:50;;;;;;;150.35;25.42;;;;;;;-2.28;100.00;101305.91;5075838;28;20094;-69
2021/12/14 07:51:22;;;;;;;162.20;25.23;;;;;;;-2.25;100.00;101307.66;5075286;28;20075;-69
2021/12/14 07:53:54;;;;;;;131.55;24.95;;;;;;;-2.28;100.00;101303.28;5075948;28;20429;-69
2021/12/14 07:56:29;;;;;;;130.98;24.40;;;;;;;-2.19;100.00;101303.38;5075248;28;20485;-69
2021/12/14 07:59:00;;;;;;;85.32;22.33;;;;;;;-2.23;100.00;101300.69;5075324;28;20041;-69
2021/12/14 08:01:29;;;;;;;80.35;23.90;;;;;;;-2.14;100.00;101306.88;5075105;28;20064;-69
2021/12/14 08:04:00;;;;;;;72.03;23.80;;;;;;;-1.99;100.00;101311.38;5075403;28;20106;-68
2021/12/14 08:06:42;;;;;;;88.43;25.00;;;;;;;-1.92;100.00;101302.72;5075383;28;20040;-69
2021/12/14 08:09:18;;;;;;;60.38;23.48;;;;;;;-1.88;100.00;101309.69;5075314;28;20040;-69
2021/12/14 08:11:49;;;;;;;78.18;22.20;;;;;;;-1.86;100.00;101307.97;5075572;28;20374;-69
2021/12/14 08:14:24;;;;;;;94.43;23.27;;;;;;;-1.79;100.00;101307.16;5075211;28;20086;-70
2021/12/14 08:17:00;;;;;;;127.10;24.35;;;;;;;-1.95;100.00;101310.50;5075353;28;20115;-69
2021/12/14 08:19:34;;;;;;;74.65;21.25;;;;;;;-1.95;100.00;101315.75;5075114;28;20044;-69
2021/12/14 08:22:08;;;;;;;217.35;27.95;;;;;;;-2.08;100.00;101300.84;5075208;28;20055;-68
2021/12/14 08:24:38;;;;;;;77.60;23.25;;;;;;;-1.80;100.00;101310.63;5074952;28;20083;-69
2021/12/14 08:27:08;;;;;;;73.60;22.65;;;;;;;-1.62;100.00;101312.50;5075150;28;20037;-69
2021/12/14 08:29:38;;;;;;;92.93;23.75;;;;;;;-1.76;100.00;101306.28;5075190;28;20044;-69
2021/12/14 08:32:12;;;;;;;98.05;22.50;;;;;;;-1.62;100.00;101309.03;5074998;28;20040;-69
2021/12/14 08:34:44;;;;;;;130.68;25.05;;;;;;;-1.70;100.00;101308.97;5074830;28;20094;-69
2021/12/14 08:37:33;;;;;;;73.35;24.35;;;;;;;-1.64;100.00;101308.09;5074784;28;20044;-70
2021/12/14 08:40:09;;;;;;;75.25;21.30;;;;;;;-1.53;100.00;101309.06;5074414;28;20132;-69
2021/12/14 08:42:46;;;;;;;107.47;22.02;;;;;;;-1.58;100.00;101318.63;5074647;28;20442;-69
2021/12/14 08:45:27;;;;;;;136.98;24.13;;;;;;;-1.93;100.00;101316.66;5074962;28;20040;-69
2021/12/14 08:48:06;;;;;;;71.85;24.83;;;;;;;-1.70;100.00;101310.69;5073471;28;20036;-69
2021/12/14 08:50:39;;;;;;;97.32;24.15;;;;;;;-1.57;100.00;101316.00;5074174;28;20051;-69
2021/12/14 08:53:09;;;;;;;112.63;24.85;;;;;;;-1.53;100.00;101309.94;5073684;28;20056;-69
2021/12/14 08:55:43;;;;;;;129.02;26.08;;;;;;;-1.50;100.00;101322.16;5074371;28;20040;-70
2021/12/14 08:58:12;;;;;;;;;;;;;;;-1.43;100.00;101316.13;5074984;28;20044;-70
2021/12/14 09:00:50;;;;;;;81.22;20.73;;;;;;;-1.26;100.00;101308.31;5074740;28;19927;-70
2021/12/14 09:03:24;;;;;;;81.70;21.67;;;;;;;-1.13;100.00;101317.13;5074278;28;20401;-70
2021/12/14 09:05:53;;;;;;;104.57;22.52;;;;;;;-1.10;100.00;101311.91;5074513;28;20535;-70
2021/12/14 09:08:23;;;;;;;63.70;22.88;;;;;;;-1.10;100.00;101309.28;5074048;28;20052;-73
2021/12/14 09:10:54;;;;;;;62.60;21.35;;;;;;;-0.90;100.00;101305.88;5074206;28;20040;-70
2021/12/14 09:13:23;;;;;;;152.50;26.55;;;;;;;-1.03;100.00;101304.09;5073633;28;20551;-71
2021/12/14 09:15:57;;;;;;;136.48;25.25;;;;;;;-0.99;100.00;101304.97;5074193;28;20044;-70
2021/12/14 09:18:29;;;;;;;70.90;24.20;;;;;;;-0.81;100.00;101291.94;5073839;28;20045;-70
2021/12/14 09:21:00;;;;;;;74.05;25.00;;;;;;;-0.84;100.00;101291.94;5074299;28;20040;-70
2021/12/14 09:23:32;;;;;;;125.82;25.73;;;;;;;-0.84;100.00;101289.31;5073890;28;20462;-70
2021/12/14 09:26:03;;;;;;;81.93;25.20;;;;;;;-0.88;100.00;101292.75;5073977;28;20040;-70
2021/12/14 09:28:35;;;;;;;133.63;26.55;;;;;;;-0.84;100.00;101299.78;5073394;28;20045;-70
2021/12/14 09:31:10;;;;;;;135.80;26.90;;;;;;;-0.85;100.00;101290.19;5073562;28;20398;-70
2021/12/14 09:33:40;;;;;;;73.68;23.70;;;;;;;-0.67;100.00;101292.84;5073841;28;20040;-70
2021/12/14 09:36:12;;;;;;;83.30;23.48;;;;;;;-0.76;100.00;101298.06;5074092;28;20067;-69
2021/12/14 09:38:43;;;;;;;66.20;23.73;;;;;;;-0.89;100.00;101304.13;5073581;28;20041;-70
2021/12/14 09:41:17;;;;;;;95.78;25.17;;;;;;;-0.75;100.00;101289.34;5073784;28;20056;-70
2021/12/14 09:43:47;;;;;;;96.18;25.27;;;;;;;-0.82;100.00;101281.44;5073469;28;20044;-69
2021/12/14 09:46:19;;;;;;;85.43;25.17;;;;;;;-0.67;100.00;101294.59;5073737;28;20040;-69
2021/12/14 09:48:53;;;;;;;87.88;25.48;;;;;;;-0.69;100.00;101294.56;5073063;28;20068;-70
2021/12/14 09:51:26;;;;;;;67.18;26.65;;;;;;;-0.64;100.00;101292.84;5073573;28;20219;-70
2021/12/14 09:54:01;;;;;;;65.57;25.30;;;;;;;-0.53;100.00;101287.63;5072366;28;20044;-69
2021/12/14 09:56:33;;;;;;;109.95;26.00;;;;;;;-0.49;100.00;101275.38;5072027;28;20106;-68
2021/12/14 09:59:05;;;;;;;76.38;25.92;;;;;;;-0.52;100.00;101278.00;5073455;28;20048;-68
2021/12/14 10:01:39;;;;;;;98.25;26.52;;;;;;;-0.60;100.00;101273.63;5073335;28;20101;-70
2021/12/14 10:04:11;;;;;;;81.68;25.80;;;;;;;-0.51;100.00;101269.28;5073587;28;20051;-69
2021/12/14 10:06:40;;;;;;;65.78;25.40;;;;;;;-0.50;100.00;101260.53;5073242;28;20045;-70
2021/12/14 10:09:11;;;;;;;67.15;24.98;;;;;;;-0.51;100.00;101267.53;5073198;28;20044;-70
2021/12/14 10:11:49;;;;;;;83.10;25.85;;;;;;;-0.37;100.00;101264.94;5073120;28;20040;-70
2021/12/14 10:14:19;;;;;;;126.80;27.10;;;;;;;-0.44;100.00;101268.41;5073390;28;20052;-69
2021/12/14 10:16:49;;;;;;;75.38;25.85;;;;;;;-0.42;100.00;101269.28;5072791;28;20490;-70
2021/12/14 10:19:20;;;;;;;82.55;24.67;;;;;;;-0.26;100.00;101260.56;5073282;28;20520;-70
2021/12/14 10:21:51;;;;;;;68.07;26.55;;;;;;;-0.31;100.00;101267.53;5072713;28;20075;-69
2021/12/14 10:24:20;;;;;;;70.53;27.27;;;;;;;-0.28;100.00;101264.94;5073343;28;20090;-69
2021/12/14 10:26:53;;;;;;;67.55;26.75;;;;;;;-0.13;100.00;101254.44;5072802;28;20041;-70
2021/12/14 10:29:23;;;;;;;74.13;27.15;;;;;;;0.02;100.00;101250.06;5073106;28;20056;-69
2021/12/14 10:31:58;;;;;;;61.85;25.05;;;;;;;-0.05;100.00;101257.06;5072991;28;20405;-70
2021/12/14 10:34:28;;;;;;;64.65;25.48;;;;;;;0.16;100.00;101264.03;5073077;28;20123;-69
2021/12/14 10:37:06;;;;;;;90.35;27.55;;;;;;;0.03;100.00;101251.81;5073127;28;20041;-69
2021/12/14 10:39:41;;;;;;;95.90;27.88;;;;;;;-0.10;100.00;101254.41;5071460;28;20060;-70
2021/12/14 10:45:02;;;;;;;79.00;27.63;;;;;;;-0.01;100.00;101258.78;5072978;28;20543;-69
2021/12/14 10:47:33;;;;;;;72.88;27.92;;;;;;;0.06;100.00;101260.53;5072901;28;20570;-71
2021/12/14 10:50:06;;;;;;;64.82;27.75;;;;;;;-0.03;100.00;101253.53;5072991;28;20041;-69
2021/12/14 10:52:40;;;;;;;66.85;28.08;;;;;;;0.08;100.00;101248.28;5072912;28;20420;-69
2021/12/14 10:55:12;;;;;;;64.47;27.33;;;;;;;-0.08;100.00;101252.69;5073072;28;20383;-69
2021/12/14 10:57:41;;;;;;;57.57;26.00;;;;;;;-0.10;100.00;101246.53;5072645;28;20055;-69
2021/12/14 11:00:13;;;;;;;67.03;27.08;;;;;;;0.06;100.00;101249.16;5072740;28;20627;-69
2021/12/14 11:02:44;;;;;;;68.30;27.90;;;;;;;-0.02;100.00;101249.16;5072524;28;20282;-70
2021/12/14 11:05:17;;;;;;;65.32;28.58;;;;;;;0.05;100.00;101252.66;5072908;28;20226;-70
2021/12/14 11:07:49;;;;;;;72.53;28.98;;;;;;;-0.03;100.00;101245.69;5072510;28;20040;-70
2021/12/14 11:10:22;;;;;;;69.32;28.80;;;;;;;-0.12;100.00;101242.19;5073153;28;20047;-70
2021/12/14 11:12:55;;;;;;;70.20;30.10;;;;;;;-0.23;100.00;101236.06;5076105;28;20052;-70
2021/12/14 11:15:26;;;;;;;70.90;30.70;;;;;;;-0.32;100.00;101236.94;5076671;28;20052;-69
2021/12/14 11:18:15;;;;;;;68.07;28.17;;;;;;;-0.26;100.00;101238.72;5076115;28;20044;-70
2021/12/14 11:20:49;;;;;;;66.95;28.58;;;;;;;-0.16;100.00;101241.31;5076143;28;20056;-69
2021/12/14 11:23:19;;;;;;;65.93;28.40;;;;;;;-0.03;100.00;101239.56;5075999;28;20079;-70
2021/12/14 11:26:04;;;;;;;58.38;26.20;;;;;;;-0.05;100.00;101231.69;5076007;28;20406;-70
2021/12/14 11:28:34;;;;;;;;;;;;;;;-0.09;100.00;101231.72;5076566;28;20082;-71
2021/12/14 11:31:06;;;;;;;63.05;27.70;;;;;;;-0.08;100.00;101229.09;5076176;28;19950;-70
2021/12/14 11:33:39;;;;;;;60.13;27.52;;;;;;;-0.11;100.00;101231.69;5076317;28;20041;-71
2021/12/14 11:36:12;;;;;;;63.65;29.45;;;;;;;-0.09;100.00;101229.09;5075948;28;20059;-69
2021/12/14 11:38:43;;;;;;;66.22;29.58;;;;;;;0.04;100.00;101227.31;5074662;28;20052;-69
2021/12/14 11:41:31;;;;;;;67.57;29.08;;;;;;;0.17;100.00;101226.41;5075197;28;20060;-70